Terminal Aerodrome Forecast
Issued by NWS

Home | Current Version | Previous Version | Text Only | Print | Product List | Glossary Off
Versions: 1 2 3 4 5 6 7 8 9 10 11 12 13 14

000
FTUS43 KPAH 241957 AAA
TAFCGI
TAF AMD
KCGI 241957Z 2420/2518 14008KT P6SM OVC060
      TEMPO 2420/2423 -SHRA BKN035
     FM250000 16008KT P6SM BKN040
     FM250600 16010KT P6SM OVC015 PROB30 2506/2510 3SM -TSRA
      BKN007CB=

USA.gov is the U.S. government's official web portal to all federal, state and local government web resources and services.